Time;durP1;ratioP1;P1;durP2;ratioP2;P2;SDS_P1;SDS_P2;PMS_P1;PMS_P2;Temp;Humidity;BMP_temperature;BMP_pressure;BME280_temperature;BME280_humidity;BME280_pressure;Samples;Min_cycle;Max_cycle;Signal;HPM_P1;HPM_P2
2022/12/30 00:00:25;;;;;;;1.20;0.53;;;7.30;99.90;;;;;;4999394;28;20647;-74
2022/12/30 00:02:51;;;;;;;3.70;0.40;;;7.30;99.90;;;;;;5012208;28;20191;-76
2022/12/30 00:05:17;;;;;;;0.97;0.40;;;7.30;99.90;;;;;;5011912;28;20275;-74
2022/12/30 00:07:42;;;;;;;0.63;0.50;;;7.30;99.90;;;;;;4991574;28;20186;-74
2022/12/30 00:10:08;;;;;;;0.40;0.40;;;7.30;99.90;;;;;;4991827;28;20185;-74
2022/12/30 00:34:56;;;;;;;0.70;0.40;;;7.30;99.90;;;;;;4989519;28;20420;-74
2022/12/30 00:37:21;;;;;;;0.40;0.40;;;7.30;99.90;;;;;;4982798;28;20423;-74
2022/12/30 00:39:47;;;;;;;1.20;0.50;;;7.20;99.90;;;;;;5000840;28;20439;-74
2022/12/30 00:44:56;;;;;;;0.40;0.30;;;7.20;99.90;;;;;;5010048;28;20718;-75
2022/12/30 00:47:22;;;;;;;0.40;0.40;;;7.20;99.90;;;;;;5011682;28;20507;-74
2022/12/30 00:58:00;;;;;;;0.50;0.47;;;7.20;99.90;;;;;;4978076;28;21019;-74
2022/12/30 01:00:25;;;;;;;0.40;0.40;;;7.20;99.90;;;;;;5009280;28;20466;-74
2022/12/30 01:02:51;;;;;;;0.70;0.37;;;7.20;99.90;;;;;;4992641;28;20197;-74
2022/12/30 01:05:16;;;;;;;3.70;0.77;;;7.10;99.90;;;;;;5009708;28;20182;-73
2022/12/30 01:07:42;;;;;;;1.43;0.50;;;7.10;99.90;;;;;;5009567;28;20173;-73
2022/12/30 01:10:10;;;;;;;0.50;0.43;;;7.10;99.90;;;;;;5009582;28;20184;-73
2022/12/30 01:12:36;;;;;;;0.60;0.60;;;7.20;99.90;;;;;;5009734;28;20575;-73
2022/12/30 01:15:01;;;;;;;0.50;0.40;;;7.10;99.90;;;;;;5010166;28;20455;-73
2022/12/30 01:17:30;;;;;;;0.97;0.63;;;7.10;99.90;;;;;;5010479;28;20172;-74
2022/12/30 01:19:55;;;;;;;0.40;0.40;;;7.00;99.90;;;;;;5010360;28;20209;-73
2022/12/30 01:22:21;;;;;;;0.50;0.43;;;6.90;99.90;;;;;;5010910;28;20959;-73
2022/12/30 01:24:47;;;;;;;1.00;0.50;;;6.90;99.90;;;;;;5011310;28;20179;-73
2022/12/30 01:27:13;;;;;;;0.83;0.50;;;7.00;99.90;;;;;;5011530;28;20173;-73
2022/12/30 01:29:41;;;;;;;0.50;0.50;;;7.00;99.90;;;;;;5010930;28;20515;-73
2022/12/30 01:32:16;;;;;;;0.40;0.40;;;7.00;99.90;;;;;;5011487;28;20223;-74
2022/12/30 01:34:42;;;;;;;0.50;0.50;;;7.10;99.90;;;;;;5010720;28;20445;-74
2022/12/30 01:37:08;;;;;;;0.57;0.50;;;7.00;99.90;;;;;;4993791;28;20442;-74
2022/12/30 01:39:34;;;;;;;0.60;0.40;;;7.00;99.90;;;;;;5010778;28;20966;-74
2022/12/30 01:42:00;;;;;;;0.47;0.47;;;7.00;99.90;;;;;;5000788;28;20201;-73
2022/12/30 01:44:59;;;;;;;2.00;0.70;;;7.00;99.90;;;;;;5001718;28;20438;-73
2022/12/30 01:47:48;;;;;;;0.70;0.70;;;7.00;99.90;;;;;;4987668;28;20762;-73
2022/12/30 01:50:22;;;;;;;1.80;0.40;;;6.90;99.90;;;;;;4994027;28;20432;-74
2022/12/30 01:53:05;;;;;;;0.50;0.43;;;6.80;99.90;;;;;;4996047;28;20429;-73
2022/12/30 01:55:37;;;;;;;2.30;0.50;;;6.80;99.90;;;;;;4995511;28;20850;-74
2022/12/30 01:58:07;;;;;;;0.53;0.53;;;6.80;99.90;;;;;;4998447;28;20508;-74
2022/12/30 03:31:13;;;;;;;1.43;0.50;;;5.10;99.90;;;;;;6010999;22;20968;-85
2022/12/30 03:33:39;;;;;;;0.50;0.50;;;5.10;99.90;;;;;;5049412;28;20472;-86
2022/12/30 03:36:28;;;;;;;0.70;0.53;;;5.10;99.90;;;;;;5055878;28;20428;-84
2022/12/30 03:39:06;;;;;;;0.93;0.50;;;5.00;99.90;;;;;;5055104;28;20423;-83
2022/12/30 03:41:32;;;;;;;2.03;0.60;;;4.80;99.90;;;;;;5067390;28;20540;-84
2022/12/30 03:43:58;;;;;;;1.53;0.50;;;4.80;99.90;;;;;;5060099;28;20431;-83
2022/12/30 03:46:30;;;;;;;1.37;0.50;;;4.70;99.90;;;;;;5056036;28;20781;-84
2022/12/30 03:48:56;;;;;;;3.43;0.60;;;4.70;99.90;;;;;;5052296;28;20275;-84
2022/12/30 03:51:22;;;;;;;1.27;0.40;;;4.70;99.90;;;;;;5056329;28;20468;-84
2022/12/30 03:53:47;;;;;;;0.60;0.60;;;4.60;99.90;;;;;;5063754;28;20432;-83
2022/12/30 03:56:13;;;;;;;1.23;0.83;;;4.50;99.90;;;;;;5053294;28;20173;-83
2022/12/30 03:58:38;;;;;;;0.93;0.60;;;4.50;99.90;;;;;;5052508;28;20180;-85
2022/12/30 04:01:04;;;;;;;1.43;0.67;;;4.50;99.90;;;;;;5072354;28;20217;-86
2022/12/30 04:03:29;;;;;;;0.47;0.47;;;4.50;99.90;;;;;;5053958;28;20240;-84
2022/12/30 04:05:55;;;;;;;1.47;0.60;;;4.40;99.90;;;;;;5073958;28;20165;-84
2022/12/30 04:08:22;;;;;;;0.50;0.50;;;4.50;99.90;;;;;;5073251;28;20180;-84
2022/12/30 04:10:48;;;;;;;1.57;0.60;;;4.50;99.90;;;;;;5073482;28;20557;-84
2022/12/30 04:13:13;;;;;;;0.40;0.40;;;4.50;99.90;;;;;;5073337;28;20426;-84
2022/12/30 04:15:39;;;;;;;0.83;0.53;;;4.50;99.90;;;;;;5073172;28;20418;-84
2022/12/30 04:18:04;;;;;;;0.53;0.53;;;4.60;99.90;;;;;;5072997;28;20245;-84
2022/12/30 04:20:30;;;;;;;0.97;0.50;;;4.70;99.90;;;;;;5072499;28;20256;-85
2022/12/30 04:22:59;;;;;;;1.43;0.53;;;4.80;99.90;;;;;;5072064;28;20178;-84
2022/12/30 04:25:26;;;;;;;1.33;0.50;;;4.90;99.90;;;;;;5073029;28;20169;-85
2022/12/30 04:27:51;;;;;;;0.80;0.50;;;4.90;99.90;;;;;;5072719;28;20426;-84
2022/12/30 04:30:17;;;;;;;0.57;0.50;;;4.90;99.90;;;;;;5054368;28;20419;-83
2022/12/30 04:32:43;;;;;;;0.43;0.43;;;5.00;99.90;;;;;;5042752;28;20545;-85
2022/12/30 04:35:09;;;;;;;0.40;0.40;;;5.10;99.90;;;;;;5053646;28;20181;-84
2022/12/30 04:37:34;;;;;;;0.70;0.70;;;5.10;99.90;;;;;;5065145;28;20597;-84
2022/12/30 04:40:00;;;;;;;0.50;0.50;;;5.10;99.90;;;;;;5074013;28;20487;-84
2022/12/30 04:42:25;;;;;;;0.50;0.50;;;5.10;99.90;;;;;;5073552;28;20206;-84
2022/12/30 04:44:51;;;;;;;3.80;0.50;;;5.10;99.90;;;;;;5073654;28;20724;-84
2022/12/30 04:47:16;;;;;;;0.97;0.53;;;5.10;99.90;;;;;;5073581;28;20204;-84
2022/12/30 04:49:42;;;;;;;1.40;0.80;;;5.10;99.90;;;;;;5073889;28;20181;-84
2022/12/30 04:52:07;;;;;;;0.50;0.50;;;5.10;99.90;;;;;;5071924;28;20211;-84
2022/12/30 04:54:33;;;;;;;1.60;0.50;;;5.10;99.90;;;;;;5070540;28;20169;-84
2022/12/30 04:56:59;;;;;;;0.60;0.40;;;5.20;99.90;;;;;;5069789;28;20588;-86
2022/12/30 04:59:24;;;;;;;0.53;0.50;;;5.20;99.90;;;;;;5069094;28;20182;-85
2022/12/30 05:01:50;;;;;;;2.30;0.50;;;5.20;99.90;;;;;;5069667;28;20247;-84
2022/12/30 05:04:15;;;;;;;0.50;0.50;;;5.20;99.90;;;;;;5069858;28;20252;-84
2022/12/30 05:06:41;;;;;;;1.17;0.60;;;5.10;99.90;;;;;;5052361;28;20177;-85
2022/12/30 05:09:06;;;;;;;1.20;0.50;;;5.10;99.90;;;;;;5071388;28;20168;-85
2022/12/30 05:11:32;;;;;;;0.40;0.40;;;5.10;99.90;;;;;;5070856;28;20947;-85
2022/12/30 05:13:57;;;;;;;0.60;0.60;;;5.10;99.90;;;;;;5071936;28;20185;-84
2022/12/30 05:16:23;;;;;;;1.40;0.50;;;5.00;99.90;;;;;;5074199;28;20185;-84
2022/12/30 05:18:48;;;;;;;0.60;0.50;;;5.10;99.90;;;;;;5076093;28;20177;-85
2022/12/30 05:21:14;;;;;;;0.50;0.50;;;5.00;99.90;;;;;;5074907;28;20261;-85
2022/12/30 05:26:24;;;;;;;0.60;0.40;;;4.90;99.90;;;;;;5075667;28;20188;-85
2022/12/30 05:28:50;;;;;;;0.40;0.40;;;4.80;99.90;;;;;;5076080;28;20902;-84
2022/12/30 05:31:17;;;;;;;2.10;0.70;;;4.80;99.90;;;;;;5074753;28;20667;-84
2022/12/30 05:33:43;;;;;;;0.50;0.50;;;4.90;99.90;;;;;;5075660;28;20181;-86
2022/12/30 05:36:09;;;;;;;1.57;0.40;;;4.80;99.90;;;;;;5057278;28;20868;-85
2022/12/30 05:38:36;;;;;;;0.50;0.40;;;4.90;99.90;;;;;;5074902;28;20173;-84
2022/12/30 05:41:02;;;;;;;0.60;0.60;;;4.90;99.90;;;;;;5074695;28;20828;-86
2022/12/30 05:43:27;;;;;;;0.40;0.40;;;5.00;99.90;;;;;;5056930;28;20796;-84
2022/12/30 05:45:53;;;;;;;0.50;0.47;;;5.00;99.90;;;;;;5056723;28;20427;-84
2022/12/30 05:48:18;;;;;;;0.40;0.40;;;4.90;99.90;;;;;;5075593;28;20178;-84
2022/12/30 05:50:48;;;;;;;0.87;0.40;;;5.00;99.90;;;;;;5074763;28;20274;-86
2022/12/30 05:53:13;;;;;;;0.70;0.50;;;5.10;99.90;;;;;;5075298;28;20207;-84
2022/12/30 05:55:39;;;;;;;0.40;0.40;;;5.00;99.90;;;;;;5076760;28;20430;-84
2022/12/30 05:58:04;;;;;;;0.53;0.47;;;5.00;99.90;;;;;;5076502;28;20180;-84
2022/12/30 06:00:30;;;;;;;0.40;0.40;;;5.00;99.90;;;;;;5057645;28;20201;-84
2022/12/30 06:02:56;;;;;;;0.50;0.50;;;5.00;99.90;;;;;;5076204;28;20172;-84
2022/12/30 06:05:22;;;;;;;0.70;0.50;;;5.00;99.90;;;;;;5075110;28;20173;-85
2022/12/30 06:07:47;;;;;;;0.60;0.60;;;5.00;99.90;;;;;;5076136;28;20923;-85
2022/12/30 06:10:14;;;;;;;0.50;0.50;;;4.90;99.90;;;;;;5075980;28;20231;-85
2022/12/30 06:12:40;;;;;;;1.37;0.70;;;4.90;99.90;;;;;;5075620;28;20179;-84
2022/12/30 06:15:06;;;;;;;0.60;0.60;;;4.80;99.90;;;;;;5076421;28;21118;-84
2022/12/30 06:17:32;;;;;;;0.53;0.50;;;4.70;99.90;;;;;;5077336;28;20191;-84
2022/12/30 06:19:57;;;;;;;1.90;0.73;;;4.60;99.90;;;;;;5078093;28;20474;-85
2022/12/30 06:22:23;;;;;;;0.83;0.70;;;4.60;99.90;;;;;;5078286;28;20204;-85
2022/12/30 06:24:49;;;;;;;0.93;0.70;;;4.50;99.90;;;;;;5077658;28;20155;-85
2022/12/30 06:27:14;;;;;;;1.57;0.67;;;4.30;99.90;;;;;;5077793;28;20191;-84
2022/12/30 06:29:40;;;;;;;4.17;3.20;;;4.30;99.90;;;;;;5076216;28;20698;-84
2022/12/30 06:32:05;;;;;;;3.90;2.93;;;4.30;99.90;;;;;;5075963;28;20213;-84
2022/12/30 06:34:31;;;;;;;2.83;2.63;;;4.20;99.90;;;;;;5074982;28;20300;-85
2022/12/30 06:36:56;;;;;;;0.70;0.70;;;4.20;99.90;;;;;;5075949;28;20231;-85
2022/12/30 06:39:22;;;;;;;1.43;0.50;;;4.10;99.90;;;;;;5074183;28;20556;-85
2022/12/30 06:41:47;;;;;;;0.50;0.50;;;4.10;99.90;;;;;;5056166;28;20666;-84
2022/12/30 06:44:13;;;;;;;0.60;0.60;;;4.00;99.90;;;;;;5073995;28;20682;-84
2022/12/30 06:46:38;;;;;;;0.60;0.60;;;4.00;99.90;;;;;;5074318;28;20705;-85
2022/12/30 06:49:04;;;;;;;0.60;0.57;;;4.00;99.90;;;;;;5074883;28;20190;-84
2022/12/30 06:51:29;;;;;;;1.47;1.27;;;3.90;99.90;;;;;;5074578;28;20201;-84
2022/12/30 06:53:55;;;;;;;0.80;0.70;;;3.80;99.90;;;;;;5073943;28;20520;-84
2022/12/30 06:56:20;;;;;;;1.80;0.80;;;3.80;99.90;;;;;;5073881;28;20199;-83
2022/12/30 06:58:46;;;;;;;2.30;1.33;;;3.80;99.90;;;;;;5056190;28;20194;-84
2022/12/30 07:01:11;;;;;;;0.70;0.70;;;3.70;99.90;;;;;;5073548;28;20667;-84
2022/12/30 07:03:37;;;;;;;1.00;0.90;;;3.70;99.90;;;;;;5073911;28;20190;-84
2022/12/30 07:06:03;;;;;;;2.23;0.80;;;3.60;99.90;;;;;;5073477;28;20411;-84
2022/12/30 07:08:28;;;;;;;1.00;1.00;;;3.60;99.90;;;;;;5073444;28;20273;-84
2022/12/30 07:10:54;;;;;;;1.30;1.30;;;3.50;99.90;;;;;;5074790;28;20328;-84
2022/12/30 07:13:20;;;;;;;1.00;1.00;;;3.50;99.90;;;;;;5073793;28;20211;-82
2022/12/30 07:15:47;;;;;;;1.37;1.27;;;3.50;99.90;;;;;;5074718;28;20225;-83
2022/12/30 07:18:12;;;;;;;0.80;0.80;;;3.40;99.90;;;;;;5074587;28;20437;-83
2022/12/30 07:20:38;;;;;;;1.53;1.37;;;3.40;99.90;;;;;;5075609;28;20469;-82
2022/12/30 07:23:03;;;;;;;1.87;1.20;;;3.40;99.90;;;;;;5076136;28;20171;-83
2022/12/30 07:25:30;;;;;;;2.33;1.93;;;3.30;99.90;;;;;;5075968;28;20490;-83
2022/12/30 07:28:03;;;;;;;1.90;1.70;;;3.20;99.90;;;;;;5075190;28;20225;-83
2022/12/30 07:30:29;;;;;;;2.10;1.07;;;3.20;99.90;;;;;;5077159;28;20448;-83
2022/12/30 07:32:55;;;;;;;1.23;1.13;;;3.20;99.90;;;;;;5075254;28;20446;-83
2022/12/30 07:35:22;;;;;;;1.20;1.10;;;3.20;99.90;;;;;;5052243;28;20974;-84
2022/12/30 07:37:48;;;;;;;0.93;0.80;;;3.20;99.90;;;;;;5069957;28;20183;-83
2022/12/30 07:40:14;;;;;;;0.90;0.90;;;3.20;99.90;;;;;;5076105;28;20484;-82
2022/12/30 07:42:40;;;;;;;2.30;1.10;;;3.20;99.90;;;;;;5075440;28;20957;-83
2022/12/30 07:45:06;;;;;;;1.10;1.00;;;3.20;99.90;;;;;;5057118;28;20187;-83
2022/12/30 07:47:33;;;;;;;1.03;0.93;;;3.20;99.90;;;;;;5064375;28;20434;-83
2022/12/30 07:49:59;;;;;;;1.20;1.10;;;3.10;99.90;;;;;;5076470;28;20462;-83
2022/12/30 07:52:25;;;;;;;3.23;1.60;;;3.20;99.90;;;;;;5076183;28;20447;-83
2022/12/30 07:54:50;;;;;;;2.53;2.20;;;3.20;99.90;;;;;;5076464;28;20433;-83
2022/12/30 07:57:16;;;;;;;7.40;4.00;;;3.20;99.90;;;;;;5075378;28;20195;-83
2022/12/30 07:59:41;;;;;;;4.00;3.43;;;3.20;99.90;;;;;;5074932;28;20207;-83
2022/12/30 08:02:10;;;;;;;5.83;2.80;;;3.20;99.90;;;;;;5058181;28;20569;-83
2022/12/30 08:04:35;;;;;;;2.60;2.30;;;3.30;99.90;;;;;;5076125;28;20186;-84
2022/12/30 08:07:01;;;;;;;2.70;1.80;;;3.30;99.90;;;;;;5076154;28;20899;-83
2022/12/30 08:09:26;;;;;;;2.97;2.17;;;3.40;99.90;;;;;;5075142;28;20643;-84
2022/12/30 08:11:52;;;;;;;3.10;2.23;;;3.50;99.90;;;;;;5075465;28;20193;-83
2022/12/30 08:14:17;;;;;;;2.97;2.43;;;3.60;99.90;;;;;;5058277;28;20176;-83
2022/12/30 08:16:43;;;;;;;3.53;2.67;;;3.80;99.90;;;;;;5075069;28;20265;-84
2022/12/30 08:19:09;;;;;;;2.20;2.00;;;3.90;99.90;;;;;;5069451;28;20188;-84
2022/12/30 08:21:34;;;;;;;1.20;1.10;;;4.00;99.90;;;;;;5055459;28;20208;-83
2022/12/30 08:24:00;;;;;;;10.53;1.10;;;4.20;99.90;;;;;;5074943;28;20269;-84
2022/12/30 08:26:26;;;;;;;1.93;1.37;;;4.30;99.90;;;;;;5075460;28;20173;-83
2022/12/30 08:28:52;;;;;;;2.10;1.10;;;4.50;99.90;;;;;;5057701;28;20178;-84
2022/12/30 08:31:20;;;;;;;2.60;1.10;;;4.70;99.90;;;;;;5074901;28;20305;-83
2022/12/30 08:33:46;;;;;;;3.10;1.53;;;5.00;99.90;;;;;;5076756;28;20490;-84
2022/12/30 08:36:14;;;;;;;2.60;2.40;;;5.10;99.90;;;;;;5076646;28;20455;-83
2022/12/30 08:38:42;;;;;;;4.70;3.60;;;5.30;99.90;;;;;;5076647;28;20441;-84
2022/12/30 08:41:18;;;;;;;13.37;7.90;;;5.30;99.90;;;;;;5076804;28;20463;-84
2022/12/30 08:43:44;;;;;;;11.27;7.20;;;5.40;99.90;;;;;;5076465;28;20452;-84
2022/12/30 08:46:11;;;;;;;12.83;8.30;;;5.60;99.90;;;;;;5075435;28;20905;-84
2022/12/30 08:48:36;;;;;;;32.10;16.30;;;5.70;99.90;;;;;;5073142;28;20805;-84
2022/12/30 08:51:03;;;;;;;39.87;17.57;;;5.80;99.90;;;;;;5072413;28;20442;-84
2022/12/30 08:53:28;;;;;;;25.80;12.57;;;5.90;99.90;;;;;;5056451;28;20246;-84
2022/12/30 08:56:10;;;;;;;46.10;18.60;;;6.00;99.90;;;;;;5076240;28;20576;-83
2022/12/30 08:58:36;;;;;;;56.37;24.60;;;6.00;99.90;;;;;;5076286;28;20166;-83
2022/12/30 09:01:20;;;;;;;50.40;23.50;;;6.10;99.90;;;;;;5058432;28;20487;-83
2022/12/30 09:03:47;;;;;;;20.10;12.50;;;6.20;99.90;;;;;;5078857;28;20408;-83
2022/12/30 09:06:15;;;;;;;15.07;11.60;;;6.30;99.90;;;;;;5077971;28;20433;-83
2022/12/30 09:08:40;;;;;;;5.10;4.60;;;6.50;99.90;;;;;;5077447;28;20431;-83
2022/12/30 09:11:12;;;;;;;6.67;4.20;;;6.60;99.90;;;;;;5075301;28;20445;-84
2022/12/30 09:13:39;;;;;;;2.43;2.33;;;6.70;99.90;;;;;;5075964;28;20260;-84
2022/12/30 09:16:13;;;;;;;2.77;2.20;;;6.80;99.90;;;;;;5076673;28;20435;-84
2022/12/30 09:18:39;;;;;;;3.23;2.00;;;7.10;99.90;;;;;;5058403;28;20454;-85
2022/12/30 09:21:05;;;;;;;2.30;1.07;;;7.80;99.90;;;;;;5074672;28;20827;-85
2022/12/30 09:23:31;;;;;;;1.93;1.00;;;8.50;99.90;;;;;;5075231;28;20406;-84
2022/12/30 09:25:57;;;;;;;0.87;0.80;;;9.30;99.90;;;;;;5074689;28;20351;-85
2022/12/30 09:28:23;;;;;;;1.17;1.07;;;10.10;99.90;;;;;;5074491;28;20406;-84
2022/12/30 09:30:48;;;;;;;1.33;0.93;;;10.80;99.90;;;;;;5073301;28;20500;-84
2022/12/30 09:33:14;;;;;;;0.70;0.70;;;11.40;99.90;;;;;;5054684;28;20445;-85
2022/12/30 09:35:40;;;;;;;0.80;0.80;;;11.50;99.90;;;;;;5070788;28;20581;-84
2022/12/30 09:38:08;;;;;;;0.60;0.60;;;11.60;99.90;;;;;;5072940;28;20549;-86
2022/12/30 09:40:56;;;;;;;1.53;0.70;;;11.90;99.90;;;;;;5053206;28;20212;-84
2022/12/30 09:43:34;;;;;;;2.70;0.70;;;11.90;99.90;;;;;;5052713;28;20756;-84
2022/12/30 09:46:26;;;;;;;0.77;0.60;;;11.70;99.90;;;;;;5045765;28;20425;-84
2022/12/30 09:49:22;;;;;;;0.60;0.60;;;11.50;99.90;;;;;;5073463;28;20554;-83
2022/12/30 09:51:54;;;;;;;2.40;0.80;;;11.30;99.90;;;;;;5021246;28;20524;-84
2022/12/30 09:54:23;;;;;;;0.60;0.60;;;11.10;99.90;;;;;;5070056;28;20427;-85
2022/12/30 09:56:52;;;;;;;2.00;0.80;;;11.00;99.90;;;;;;5052172;28;20426;-84
2022/12/30 09:59:28;;;;;;;2.97;0.77;;;11.10;99.90;;;;;;5053350;28;20415;-85
2022/12/30 10:02:06;;;;;;;1.70;0.60;;;11.20;99.90;;;;;;5073247;28;20956;-86
2022/12/30 10:04:37;;;;;;;0.57;0.57;;;11.20;99.90;;;;;;5069210;28;20434;-84
2022/12/30 10:07:13;;;;;;;1.30;0.60;;;11.10;99.90;;;;;;5073633;28;20423;-84
2022/12/30 10:09:46;;;;;;;0.60;0.60;;;11.30;99.90;;;;;;5075122;28;20827;-83
2022/12/30 10:12:32;;;;;;;0.70;0.50;;;11.10;99.90;;;;;;5075555;28;20453;-83
2022/12/30 10:15:20;;;;;;;0.70;0.60;;;10.90;99.90;;;;;;5069835;28;20497;-83
2022/12/30 10:18:05;;;;;;;2.07;0.60;;;10.90;99.90;;;;;;5078074;28;20763;-84
2022/12/30 10:20:48;;;;;;;1.43;0.70;;;10.90;99.90;;;;;;5065013;28;20460;-84
2022/12/30 10:23:29;;;;;;;1.30;0.60;;;10.90;99.90;;;;;;5079839;28;20417;-82
2022/12/30 10:26:04;;;;;;;0.70;0.70;;;11.00;99.90;;;;;;5078008;28;20422;-83
2022/12/30 10:28:37;;;;;;;0.60;0.50;;;10.80;99.90;;;;;;5078439;28;20405;-82
2022/12/30 10:31:07;;;;;;;6.20;0.60;;;11.00;99.90;;;;;;5078364;28;20445;-83
2022/12/30 10:33:34;;;;;;;0.50;0.50;;;10.90;99.90;;;;;;5078939;28;20426;-83
2022/12/30 10:36:16;;;;;;;1.90;0.60;;;11.00;99.90;;;;;;5078124;28;20824;-83
2022/12/30 10:38:42;;;;;;;1.67;0.70;;;11.10;99.90;;;;;;5073480;28;20795;-83
2022/12/30 10:41:26;;;;;;;0.67;0.50;;;11.10;99.90;;;;;;5071248;28;20468;-83
2022/12/30 10:44:13;;;;;;;2.00;0.63;;;11.20;99.90;;;;;;5074401;28;20169;-83
2022/12/30 10:47:05;;;;;;;0.70;0.70;;;11.20;99.90;;;;;;5079575;28;20419;-83
2022/12/30 10:50:03;;;;;;;1.17;0.80;;;11.30;99.90;;;;;;5072090;28;20438;-83
2022/12/30 10:52:30;;;;;;;0.80;0.80;;;11.50;99.90;;;;;;5066035;28;20654;-83
2022/12/30 10:54:55;;;;;;;3.23;0.60;;;11.20;99.90;;;;;;5077623;28;20476;-84
2022/12/30 10:57:30;;;;;;;3.07;0.90;;;11.10;99.90;;;;;;5075522;28;20427;-84
2022/12/30 10:59:57;;;;;;;0.57;0.57;;;11.20;99.90;;;;;;5044800;28;20207;-84
2022/12/30 11:02:28;;;;;;;0.80;0.60;;;11.10;99.90;;;;;;5073856;28;20448;-83
2022/12/30 11:04:53;;;;;;;2.10;0.60;;;11.10;99.90;;;;;;5066394;28;20412;-82
2022/12/30 11:07:20;;;;;;;0.53;0.53;;;11.20;99.90;;;;;;5066289;28;20428;-83
2022/12/30 11:09:46;;;;;;;0.70;0.70;;;11.10;99.90;;;;;;5046610;28;20180;-83
2022/12/30 11:15:11;;;;;;;1.63;0.60;;;10.90;99.90;;;;;;5069486;28;20519;-83
2022/12/30 11:17:44;;;;;;;0.60;0.60;;;10.90;99.90;;;;;;5064083;28;20458;-83
2022/12/30 11:20:12;;;;;;;0.80;0.80;;;10.90;99.90;;;;;;5071903;28;20492;-83
2022/12/30 11:23:24;;;;;;;3.47;0.53;;;10.80;99.90;;;;;;5079415;28;20413;-83
2022/12/30 11:25:51;;;;;;;3.03;0.87;;;10.80;99.90;;;;;;5053309;28;20433;-83
2022/12/30 11:28:45;;;;;;;0.97;0.60;;;10.80;99.90;;;;;;5063433;28;20418;-83
2022/12/30 11:31:13;;;;;;;1.03;0.60;;;10.80;99.90;;;;;;5064776;28;20560;-83
2022/12/30 11:33:49;;;;;;;0.90;0.70;;;11.00;99.90;;;;;;5074741;28;20461;-81
2022/12/30 11:36:35;;;;;;;1.73;0.80;;;11.00;99.90;;;;;;5043023;28;20422;-81
2022/12/30 11:39:04;;;;;;;0.73;0.73;;;10.90;99.90;;;;;;5056506;28;20942;-83
2022/12/30 11:41:31;;;;;;;0.53;0.53;;;10.90;99.90;;;;;;5043877;28;20520;-83
2022/12/30 11:44:00;;;;;;;1.00;0.77;;;11.00;99.90;;;;;;5081775;28;20420;-83
2022/12/30 11:46:45;;;;;;;0.80;0.60;;;11.00;99.90;;;;;;5091680;28;20962;-82
2022/12/30 11:49:29;;;;;;;1.93;0.90;;;10.90;99.90;;;;;;5070831;28;20542;-82
2022/12/30 11:52:04;;;;;;;3.93;1.03;;;10.90;99.90;;;;;;5057733;28;20427;-83
2022/12/30 11:54:50;;;;;;;1.50;1.00;;;10.60;99.90;;;;;;5068678;28;20429;-82
2022/12/30 11:57:25;;;;;;;0.70;0.70;;;10.60;99.90;;;;;;5077444;28;20451;-83
2022/12/30 11:59:55;;;;;;;0.90;0.90;;;10.50;99.90;;;;;;5059247;28;20529;-84
2022/12/30 12:02:36;;;;;;;1.90;0.70;;;10.40;99.90;;;;;;5077967;28;20522;-83
2022/12/30 12:05:23;;;;;;;2.60;0.70;;;10.30;99.90;;;;;;5076728;28;20466;-82
2022/12/30 12:07:53;;;;;;;0.67;0.60;;;10.30;99.90;;;;;;5077447;28;20476;-83
2022/12/30 12:10:24;;;;;;;0.63;0.60;;;10.30;99.90;;;;;;5075315;28;20430;-83
2022/12/30 12:12:53;;;;;;;1.33;0.60;;;10.30;99.90;;;;;;5071445;28;20430;-81
2022/12/30 12:15:42;;;;;;;2.20;0.70;;;10.30;99.90;;;;;;5073810;28;20835;-82
2022/12/30 12:18:23;;;;;;;1.00;0.80;;;10.30;99.90;;;;;;5075440;28;20424;-82
2022/12/30 12:21:26;;;;;;;1.13;0.70;;;10.20;99.90;;;;;;5065958;28;20589;-81
2022/12/30 12:24:16;;;;;;;0.60;0.60;;;10.10;99.90;;;;;;5073370;28;20785;-81
2022/12/30 12:26:57;;;;;;;4.10;1.03;;;10.10;99.90;;;;;;5070271;28;20429;-81
2022/12/30 12:29:24;;;;;;;0.60;0.60;;;10.00;99.90;;;;;;5071634;28;20422;-83
2022/12/30 12:32:17;;;;;;;0.80;0.80;;;10.10;99.90;;;;;;5047065;28;20470;-82
2022/12/30 12:34:56;;;;;;;1.43;0.80;;;10.10;99.90;;;;;;5070759;28;20422;-82
2022/12/30 12:37:41;;;;;;;1.87;1.00;;;10.00;99.90;;;;;;5067704;28;20423;-81
2022/12/30 12:40:12;;;;;;;0.60;0.50;;;10.00;99.90;;;;;;5076780;28;20465;-82
2022/12/30 12:42:57;;;;;;;0.70;0.63;;;10.00;99.90;;;;;;5075476;28;20486;-82
2022/12/30 12:45:48;;;;;;;0.63;0.63;;;9.90;99.90;;;;;;5058480;28;20441;-83
2022/12/30 12:48:20;;;;;;;0.73;0.53;;;9.90;99.90;;;;;;5071116;28;20820;-83
2022/12/30 12:50:48;;;;;;;0.90;0.53;;;9.90;99.90;;;;;;5074328;28;20445;-83
2022/12/30 12:53:32;;;;;;;2.23;0.70;;;9.90;99.90;;;;;;5074826;28;20832;-81
2022/12/30 12:56:30;;;;;;;2.00;0.87;;;10.00;99.90;;;;;;5059129;28;20430;-82
2022/12/30 12:59:09;;;;;;;0.70;0.70;;;10.00;99.90;;;;;;5055312;28;20820;-80
2022/12/30 13:02:02;;;;;;;1.23;1.23;;;10.00;99.90;;;;;;5073759;28;20476;-82
2022/12/30 13:04:47;;;;;;;0.97;0.70;;;10.00;99.90;;;;;;5070770;28;20423;-82
2022/12/30 13:07:24;;;;;;;1.20;0.87;;;9.90;99.90;;;;;;5067076;28;20506;-82
2022/12/30 13:10:13;;;;;;;4.20;0.90;;;9.90;99.90;;;;;;5069113;28;20509;-81
2022/12/30 13:13:24;;;;;;;1.10;1.00;;;9.90;99.90;;;;;;5071117;28;21073;-82
2022/12/30 13:15:56;;;;;;;3.20;0.90;;;9.90;99.90;;;;;;5075308;28;20940;-82
2022/12/30 13:18:24;;;;;;;1.83;1.23;;;9.90;99.90;;;;;;5075704;28;20990;-82
2022/12/30 13:21:03;;;;;;;0.93;0.90;;;9.90;99.90;;;;;;5076868;28;20519;-82
2022/12/30 13:23:42;;;;;;;1.17;0.73;;;9.90;99.90;;;;;;5055557;28;20407;-82
2022/12/30 13:26:08;;;;;;;0.90;0.80;;;9.90;99.90;;;;;;5065781;28;20924;-81
2022/12/30 13:28:37;;;;;;;0.80;0.80;;;9.90;99.90;;;;;;5075657;28;20509;-82
2022/12/30 13:31:02;;;;;;;1.60;1.30;;;9.90;99.90;;;;;;5071628;28;20207;-83
2022/12/30 13:33:46;;;;;;;1.07;1.00;;;10.00;99.90;;;;;;5074572;28;20515;-83
2022/12/30 13:36:36;;;;;;;1.97;0.83;;;9.90;99.90;;;;;;5078583;28;20170;-82
2022/12/30 13:39:26;;;;;;;1.03;0.93;;;10.00;99.90;;;;;;5080513;28;20421;-81
2022/12/30 13:42:13;;;;;;;1.30;1.10;;;10.00;99.90;;;;;;5077703;28;21020;-81
2022/12/30 13:44:43;;;;;;;1.00;0.90;;;9.90;99.90;;;;;;5077273;28;21016;-82
2022/12/30 13:47:41;;;;;;;1.30;0.77;;;9.90;99.90;;;;;;5077576;28;20542;-81
2022/12/30 13:50:19;;;;;;;5.90;1.20;;;9.90;99.90;;;;;;5015236;28;20535;-83
2022/12/30 13:52:48;;;;;;;0.90;0.90;;;9.90;99.90;;;;;;5076958;28;20479;-83
2022/12/30 13:55:34;;;;;;;2.47;0.83;;;9.90;99.90;;;;;;5074263;28;20452;-81
2022/12/30 13:58:20;;;;;;;3.20;1.43;;;9.90;99.90;;;;;;5061264;28;20430;-84
2022/12/30 14:01:06;;;;;;;1.50;1.40;;;10.00;99.90;;;;;;5059866;28;20458;-84
2022/12/30 14:03:34;;;;;;;1.87;0.97;;;9.90;99.90;;;;;;5077298;28;20429;-84
2022/12/30 14:06:02;;;;;;;3.90;1.63;;;9.90;99.90;;;;;;5080567;28;20426;-84
2022/12/30 14:08:27;;;;;;;1.20;1.10;;;9.90;99.90;;;;;;5081347;28;20426;-84
2022/12/30 14:11:06;;;;;;;2.00;0.70;;;9.90;99.90;;;;;;5070143;28;20492;-84
2022/12/30 14:13:35;;;;;;;2.40;1.10;;;9.90;99.90;;;;;;5075288;28;20530;-83
2022/12/30 14:16:31;;;;;;;1.00;0.73;;;9.80;99.90;;;;;;5079799;28;20416;-83
2022/12/30 14:18:58;;;;;;;0.90;0.90;;;9.80;99.90;;;;;;5080476;28;20765;-82
2022/12/30 14:21:43;;;;;;;0.70;0.70;;;9.90;99.90;;;;;;5062043;28;20476;-83
2022/12/30 14:24:33;;;;;;;1.43;0.70;;;9.90;99.90;;;;;;5078191;28;20418;-83
2022/12/30 14:26:59;;;;;;;2.60;1.10;;;9.80;99.90;;;;;;5061088;28;20980;-84
2022/12/30 14:29:33;;;;;;;0.77;0.77;;;9.80;99.90;;;;;;5081754;28;20424;-85
2022/12/30 14:32:05;;;;;;;1.37;1.27;;;9.90;99.90;;;;;;5064317;28;20472;-85
2022/12/30 14:34:37;;;;;;;1.93;1.63;;;9.80;99.90;;;;;;5081731;28;20457;-84
2022/12/30 14:37:22;;;;;;;1.20;1.00;;;9.80;99.90;;;;;;5065282;28;20416;-84
2022/12/30 14:39:51;;;;;;;3.40;1.00;;;9.80;99.90;;;;;;5047674;28;20427;-84
2022/12/30 14:42:27;;;;;;;2.30;1.53;;;9.70;99.90;;;;;;5060946;28;20428;-82
2022/12/30 14:44:56;;;;;;;2.83;1.20;;;9.70;99.90;;;;;;5072173;28;20414;-83
2022/12/30 14:47:40;;;;;;;2.00;1.55;;;9.70;99.90;;;;;;5066475;28;20767;-83
2022/12/30 14:50:09;;;;;;;2.83;1.83;;;9.70;99.90;;;;;;5077396;28;20177;-85
2022/12/30 14:52:46;;;;;;;3.10;2.40;;;9.70;99.90;;;;;;5076628;28;20960;-84
2022/12/30 14:55:20;;;;;;;3.77;2.57;;;9.70;99.90;;;;;;5073151;28;20422;-84
2022/12/30 14:57:59;;;;;;;3.60;3.13;;;9.70;99.90;;;;;;5068370;28;20452;-84
2022/12/30 15:00:29;;;;;;;4.60;3.30;;;9.70;99.90;;;;;;5057600;28;20828;-84
2022/12/30 15:02:57;;;;;;;5.10;4.60;;;9.70;99.90;;;;;;5076349;28;20417;-84
2022/12/30 15:05:24;;;;;;;5.87;3.13;;;9.80;99.90;;;;;;5069311;28;20465;-84
2022/12/30 15:08:07;;;;;;;8.33;3.90;;;9.70;99.90;;;;;;5057325;28;20434;-85
2022/12/30 15:10:36;;;;;;;14.70;5.07;;;9.70;99.90;;;;;;5060642;28;20918;-84
2022/12/30 15:13:06;;;;;;;13.20;6.70;;;9.70;99.90;;;;;;5039166;28;20415;-87
2022/12/30 15:15:32;;;;;;;5.80;4.63;;;9.70;99.90;;;;;;5063427;28;20434;-84
2022/12/30 15:17:58;;;;;;;9.23;4.40;;;9.60;99.90;;;;;;5038809;28;20480;-86
2022/12/30 15:20:28;;;;;;;5.33;3.27;;;9.70;99.90;;;;;;5063210;28;20462;-84
2022/12/30 15:22:53;;;;;;;4.10;3.10;;;9.60;99.90;;;;;;5055590;28;20469;-84